createdAt,value
2018-03-18T00:01:41.496Z,20.25
2018-03-18T00:04:10.733Z,18.00
2018-03-18T00:06:39.668Z,19.85
2018-03-18T00:09:09.184Z,22.35
2018-03-18T00:11:37.508Z,19.85
2018-03-18T00:14:05.855Z,19.92
2018-03-18T00:16:34.172Z,18.67
2018-03-18T00:19:02.433Z,17.95
2018-03-18T00:21:31.471Z,18.60
2018-03-18T00:23:59.750Z,19.08
2018-03-18T00:26:28.025Z,19.35
2018-03-18T00:28:56.325Z,18.52
2018-03-18T00:31:24.663Z,18.42
2018-03-18T00:33:52.946Z,16.30
2018-03-18T00:36:21.265Z,18.80
2018-03-18T00:38:49.700Z,13.62
2018-03-18T00:41:18.056Z,15.00
2018-03-18T00:43:46.408Z,17.33
2018-03-18T00:46:15.450Z,17.20
2018-03-18T00:48:43.794Z,17.90
2018-03-18T00:51:12.046Z,18.35
2018-03-18T00:53:40.327Z,18.33
2018-03-18T00:56:08.638Z,17.77
2018-03-18T00:58:36.920Z,20.23
2018-03-18T01:01:05.216Z,18.77
2018-03-18T01:03:33.621Z,19.60
2018-03-18T01:06:01.854Z,18.95
2018-03-18T01:08:30.148Z,19.17
2018-03-18T01:10:58.398Z,18.87
2018-03-18T01:13:26.708Z,20.15
2018-03-18T01:15:54.982Z,19.83
2018-03-18T01:18:23.305Z,18.70
2018-03-18T01:20:51.559Z,19.90
2018-03-18T01:23:19.818Z,20.42
2018-03-18T01:25:48.113Z,19.27
2018-03-18T01:28:16.372Z,18.35
2018-03-18T01:30:44.662Z,21.33
2018-03-18T01:33:12.922Z,17.95
2018-03-18T01:35:41.454Z,19.05
2018-03-18T01:38:09.719Z,17.23
2018-03-18T01:40:38.016Z,21.27
2018-03-18T01:43:06.297Z,19.85
2018-03-18T01:45:34.569Z,20.30
2018-03-18T01:48:02.817Z,19.35
2018-03-18T01:50:31.099Z,20.65
2018-03-18T01:53:12.042Z,20.15
2018-03-18T01:55:40.398Z,19.33
2018-03-18T01:58:08.673Z,20.70
2018-03-18T02:00:37.005Z,21.02
2018-03-18T02:03:06.068Z,19.25
2018-03-18T02:05:34.342Z,19.85
2018-03-18T02:08:02.625Z,20.25
2018-03-18T02:10:30.905Z,19.90
2018-03-18T02:12:59.191Z,20.30
2018-03-18T02:15:27.471Z,21.52
2018-03-18T02:17:55.741Z,20.88
2018-03-18T02:20:24.013Z,18.87
2018-03-18T02:22:52.291Z,18.10
2018-03-18T02:25:20.558Z,18.65
2018-03-18T02:27:48.845Z,20.35
2018-03-18T02:30:17.160Z,20.42
2018-03-18T02:32:45.440Z,19.85
2018-03-18T02:35:13.719Z,19.58
2018-03-18T02:37:42.000Z,18.80
2018-03-18T02:40:11.081Z,19.17
2018-03-18T02:42:39.345Z,16.05
2018-03-18T02:45:07.664Z,19.27
2018-03-18T02:47:35.972Z,19.35
2018-03-18T02:50:04.319Z,19.58
2018-03-18T02:52:32.603Z,15.52
2018-03-18T02:55:00.861Z,18.52
2018-03-18T02:57:29.199Z,17.85
2018-03-18T02:59:57.478Z,17.27
2018-03-18T03:02:25.833Z,16.40
2018-03-18T03:04:54.126Z,15.40
2018-03-18T03:07:22.402Z,16.70
2018-03-18T03:09:50.707Z,17.77
2018-03-18T03:12:19.067Z,17.27
2018-03-18T03:14:47.442Z,18.55
2018-03-18T03:17:15.718Z,18.70
2018-03-18T03:19:43.994Z,17.17
2018-03-18T03:22:12.284Z,18.90
2018-03-18T03:24:40.567Z,18.40
2018-03-18T03:27:08.832Z,16.87
2018-03-18T03:29:37.114Z,18.15
2018-03-18T03:32:05.387Z,17.52
2018-03-18T03:34:33.675Z,17.55
2018-03-18T03:37:01.943Z,18.25
2018-03-18T03:39:30.260Z,17.12
2018-03-18T03:41:58.537Z,16.80
2018-03-18T03:44:26.793Z,17.98
2018-03-18T03:46:55.105Z,16.30
2018-03-18T03:49:23.374Z,17.27
2018-03-18T03:51:51.643Z,15.95
2018-03-18T03:54:19.902Z,15.85
2018-03-18T03:56:49.109Z,16.95
2018-03-18T03:59:18.152Z,17.23
2018-03-18T04:01:46.430Z,16.67
2018-03-18T04:04:14.724Z,16.10
2018-03-18T04:06:43.020Z,17.08
2018-03-18T04:09:11.361Z,17.02
2018-03-18T04:11:39.654Z,16.80
2018-03-18T04:14:07.921Z,15.80
2018-03-18T04:16:36.218Z,17.62
2018-03-18T04:19:04.497Z,17.52
2018-03-18T04:21:32.782Z,17.20
2018-03-18T04:24:01.039Z,17.05
2018-03-18T04:26:29.326Z,15.45
2018-03-18T04:28:57.618Z,15.38
2018-03-18T04:31:25.877Z,15.88
2018-03-18T04:33:54.192Z,15.07
2018-03-18T04:36:22.438Z,15.55
2018-03-18T04:38:50.714Z,15.38
2018-03-18T04:41:19.062Z,14.82
2018-03-18T04:43:47.314Z,14.57
2018-03-18T04:46:15.575Z,15.05
2018-03-18T04:48:43.863Z,16.40
2018-03-18T04:51:12.154Z,17.08
2018-03-18T04:53:40.425Z,17.27
2018-03-18T04:56:08.686Z,16.15
2018-03-18T04:58:36.960Z,15.10
2018-03-18T05:01:05.210Z,13.93
2018-03-18T05:03:33.489Z,15.52
2018-03-18T05:06:01.751Z,14.87
2018-03-18T05:08:30.026Z,15.23
2018-03-18T05:10:58.293Z,14.35
2018-03-18T05:13:26.567Z,14.43
2018-03-18T05:15:54.827Z,15.25
2018-03-18T05:18:23.090Z,14.50
2018-03-18T05:20:52.110Z,16.50
2018-03-18T05:23:20.414Z,14.75
2018-03-18T05:25:48.687Z,13.88
2018-03-18T05:28:17.009Z,14.55
2018-03-18T05:30:45.263Z,15.70
2018-03-18T05:33:13.550Z,15.10
2018-03-18T05:35:41.821Z,13.95
2018-03-18T05:38:10.086Z,14.35
2018-03-18T05:40:38.354Z,15.43
2018-03-18T05:43:07.369Z,14.43
2018-03-18T05:45:35.650Z,14.70
2018-03-18T05:48:03.906Z,14.07
2018-03-18T05:50:32.962Z,14.35
2018-03-18T05:53:01.196Z,13.20
2018-03-18T05:55:30.224Z,14.18
2018-03-18T05:57:58.514Z,15.55
2018-03-18T06:00:26.787Z,12.77
2018-03-18T06:02:55.096Z,14.18
2018-03-18T06:05:23.359Z,15.40
2018-03-18T06:07:51.638Z,13.70
2018-03-18T06:10:19.902Z,14.73
2018-03-18T06:12:48.241Z,13.55
2018-03-18T06:15:16.493Z,13.75
2018-03-18T06:17:44.791Z,12.85
2018-03-18T06:20:13.059Z,13.05
2018-03-18T06:22:41.329Z,12.82
2018-03-18T06:25:09.608Z,12.77
2018-03-18T06:27:37.883Z,14.73
2018-03-18T06:30:06.181Z,13.90
2018-03-18T06:32:34.450Z,14.18
2018-03-18T06:35:02.739Z,12.25
2018-03-18T06:37:31.014Z,13.95
2018-03-18T06:39:59.274Z,10.98
2018-03-18T06:42:28.723Z,11.88
2018-03-18T06:44:56.979Z,14.00
2018-03-18T06:47:25.254Z,12.25
2018-03-18T06:49:53.530Z,12.27
2018-03-18T06:52:21.842Z,13.23
2018-03-18T06:54:50.487Z,12.70
2018-03-18T06:57:20.477Z,12.02
2018-03-18T06:59:50.241Z,13.98
2018-03-18T07:02:18.537Z,14.48
2018-03-18T07:04:46.803Z,12.35
2018-03-18T07:07:15.083Z,12.55
2018-03-18T07:09:43.338Z,12.25
2018-03-18T07:12:12.366Z,13.05
2018-03-18T07:14:40.912Z,12.60
2018-03-18T07:17:09.604Z,12.63
2018-03-18T07:19:38.806Z,12.35
2018-03-18T07:22:07.197Z,13.38
2018-03-18T07:24:35.522Z,11.12
2018-03-18T07:27:04.061Z,11.65
2018-03-18T07:29:32.749Z,10.63
2018-03-18T07:32:01.072Z,12.60
2018-03-18T07:34:29.754Z,12.63
2018-03-18T07:36:58.084Z,13.18
2018-03-18T07:39:27.100Z,12.02
2018-03-18T07:41:56.312Z,11.63
2018-03-18T07:44:24.623Z,10.63
2018-03-18T07:46:53.802Z,12.95
2018-03-18T07:49:22.857Z,10.38
2018-03-18T07:51:51.102Z,12.48
2018-03-18T07:54:19.371Z,10.57
2018-03-18T07:56:48.506Z,11.90
2018-03-18T07:59:17.000Z,10.63
2018-03-18T08:01:46.444Z,12.02
2018-03-18T08:04:15.533Z,11.57
2018-03-18T08:06:43.795Z,10.43
2018-03-18T08:09:12.070Z,11.90
2018-03-18T08:11:40.328Z,11.38
2018-03-18T08:14:08.632Z,11.30
2018-03-18T08:16:36.864Z,13.73
2018-03-18T08:19:05.142Z,12.27
2018-03-18T08:21:34.193Z,11.43
2018-03-18T08:24:02.486Z,11.80
2018-03-18T08:26:30.756Z,12.23
2018-03-18T08:29:00.692Z,11.30
2018-03-18T08:31:29.073Z,11.60
2018-03-18T08:33:57.337Z,12.95
2018-03-18T08:36:27.277Z,13.20
2018-03-18T08:38:55.554Z,12.55
2018-03-18T08:41:23.842Z,12.85
2018-03-18T08:43:52.219Z,12.55
2018-03-18T08:46:20.493Z,13.00
2018-03-18T08:48:48.759Z,12.27
2018-03-18T08:51:17.022Z,12.98
2018-03-18T08:53:45.326Z,12.90
2018-03-18T08:56:13.600Z,13.43
2018-03-18T08:58:41.901Z,12.73
2018-03-18T09:01:10.172Z,13.93
2018-03-18T09:03:38.441Z,12.52
2018-03-18T09:06:06.749Z,12.85
2018-03-18T09:08:35.141Z,12.37
2018-03-18T09:11:03.611Z,12.52
2018-03-18T09:13:31.885Z,11.95
2018-03-18T09:16:00.664Z,13.43
2018-03-18T09:18:28.951Z,12.02
2018-03-18T09:20:57.898Z,13.23
2018-03-18T09:23:26.142Z,13.02
2018-03-18T09:25:54.412Z,12.98
2018-03-18T09:28:23.200Z,12.73
2018-03-18T09:30:51.535Z,13.10
2018-03-18T09:33:20.860Z,11.90
2018-03-18T09:35:50.245Z,12.35
2018-03-18T09:38:20.075Z,13.05
2018-03-18T09:40:48.594Z,13.32
2018-03-18T09:43:17.283Z,14.05
2018-03-18T09:45:45.551Z,12.85
2018-03-18T09:48:14.704Z,12.73
2018-03-18T09:50:44.050Z,12.25
2018-03-18T09:53:13.233Z,13.27
2018-03-18T09:55:41.515Z,12.85
2018-03-18T09:58:09.998Z,13.27
2018-03-18T10:00:39.041Z,13.90
2018-03-18T10:03:07.366Z,12.20
2018-03-18T10:05:35.636Z,12.95
2018-03-18T10:08:03.934Z,12.52
2018-03-18T10:10:32.341Z,13.18
2018-03-18T10:13:01.437Z,14.60
2018-03-18T10:15:30.526Z,13.30
2018-03-18T10:18:00.328Z,12.15
2018-03-18T10:20:28.615Z,12.15
2018-03-18T10:22:57.662Z,11.50
2018-03-18T10:25:25.934Z,12.57
2018-03-18T10:27:54.967Z,11.68
2018-03-18T10:30:23.259Z,12.52
2018-03-18T10:32:51.768Z,12.35
2018-03-18T10:35:21.847Z,11.15
2018-03-18T10:37:50.197Z,11.73
2018-03-18T10:40:19.242Z,11.23
2018-03-18T10:42:47.529Z,11.75
2018-03-18T10:45:15.793Z,11.90
2018-03-18T10:47:44.078Z,11.52
2018-03-18T10:50:12.377Z,10.32
2018-03-18T10:52:40.681Z,10.75
2018-03-18T10:55:08.960Z,12.40
2018-03-18T10:57:37.247Z,12.27
2018-03-18T11:00:05.624Z,11.43
2018-03-18T11:02:34.003Z,10.52
2018-03-18T11:05:02.296Z,10.90
2018-03-18T11:07:31.354Z,10.45
2018-03-18T11:09:59.627Z,11.35
2018-03-18T11:12:28.032Z,10.30
2018-03-18T11:14:56.310Z,10.32
2018-03-18T11:17:24.578Z,10.38
2018-03-18T11:19:52.874Z,11.20
2018-03-18T11:22:21.137Z,10.75
2018-03-18T11:24:49.388Z,10.35
2018-03-18T11:27:17.676Z,10.88
2018-03-18T11:29:45.922Z,11.23
2018-03-18T11:32:14.413Z,10.80
2018-03-18T11:34:42.722Z,10.73
2018-03-18T11:37:10.989Z,10.60
2018-03-18T11:39:40.006Z,10.95
2018-03-18T11:42:08.270Z,10.30
2018-03-18T11:44:37.327Z,11.80
2018-03-18T11:47:05.613Z,10.75
2018-03-18T11:49:33.872Z,10.75
2018-03-18T11:52:02.781Z,10.48
2018-03-18T11:54:31.092Z,10.20
2018-03-18T11:56:59.350Z,10.70
2018-03-18T11:59:27.747Z,9.13
2018-03-18T12:01:56.086Z,10.60
2018-03-18T12:04:24.362Z,9.63
2018-03-18T12:06:52.700Z,12.00
2018-03-18T12:09:21.051Z,9.85
2018-03-18T12:11:49.313Z,11.27
2018-03-18T12:14:17.577Z,9.20
2018-03-18T12:16:46.617Z,10.00
2018-03-18T12:19:14.889Z,11.07
2018-03-18T12:21:43.141Z,10.45
2018-03-18T12:24:11.461Z,11.15
2018-03-18T12:26:39.718Z,10.30
2018-03-18T12:29:07.990Z,11.40
2018-03-18T12:31:36.252Z,10.65
2018-03-18T12:34:05.299Z,9.50
2018-03-18T12:36:33.597Z,10.73
2018-03-18T12:39:01.885Z,9.10
2018-03-18T12:41:31.087Z,10.43
2018-03-18T12:43:59.355Z,10.88
2018-03-18T12:46:27.646Z,8.90
2018-03-18T12:48:55.932Z,10.50
2018-03-18T12:51:24.195Z,10.55
2018-03-18T12:53:52.501Z,10.07
2018-03-18T12:56:21.578Z,10.70
2018-03-18T12:58:49.862Z,9.88
2018-03-18T13:01:18.122Z,9.40
2018-03-18T13:03:46.394Z,10.80
2018-03-18T13:06:14.685Z,10.57
2018-03-18T13:08:42.943Z,9.82
2018-03-18T13:11:11.222Z,9.70
2018-03-18T13:13:40.270Z,9.60
2018-03-18T13:16:08.567Z,11.32
2018-03-18T13:18:36.820Z,10.30
2018-03-18T13:21:05.105Z,9.65
2018-03-18T13:23:33.370Z,10.20
2018-03-18T13:26:01.671Z,10.32
2018-03-18T13:28:29.956Z,10.13
2018-03-18T13:30:58.275Z,9.27
2018-03-18T13:33:27.432Z,9.07
2018-03-18T13:35:57.460Z,9.15
2018-03-18T13:38:26.068Z,9.95
2018-03-18T13:40:54.603Z,9.90
2018-03-18T13:43:23.182Z,9.43
2018-03-18T13:45:52.759Z,9.18
2018-03-18T13:48:21.455Z,9.85
2018-03-18T13:50:50.238Z,9.25
2018-03-18T13:53:18.629Z,9.52
2018-03-18T13:55:47.660Z,9.43
2018-03-18T13:58:16.030Z,8.98
2018-03-18T14:00:45.061Z,9.60
2018-03-18T14:03:13.347Z,8.70
2018-03-18T14:05:41.635Z,8.75
2018-03-18T14:08:11.073Z,8.68
2018-03-18T14:10:40.182Z,8.90
2018-03-18T14:13:08.625Z,7.93
2018-03-18T14:15:36.981Z,9.32
2018-03-18T14:18:05.399Z,8.25
2018-03-18T14:20:33.660Z,7.90
2018-03-18T14:23:02.049Z,8.05
2018-03-18T14:25:30.344Z,7.70
2018-03-18T14:27:58.634Z,9.75
2018-03-18T14:30:27.465Z,9.32
2018-03-18T14:32:56.609Z,8.90
2018-03-18T14:35:24.870Z,8.43
2018-03-18T14:37:53.346Z,8.20
2018-03-18T14:40:22.371Z,8.73
2018-03-18T14:42:50.652Z,8.20
2018-03-18T14:45:18.957Z,9.07
2018-03-18T14:47:47.303Z,7.85
2018-03-18T14:50:15.643Z,6.87
2018-03-18T14:52:43.999Z,8.88
2018-03-18T14:55:12.265Z,8.38
2018-03-18T14:57:40.585Z,8.07
2018-03-18T15:00:08.848Z,8.07
2018-03-18T15:02:37.091Z,8.77
2018-03-18T15:05:05.367Z,7.50
2018-03-18T15:07:33.614Z,9.18
2018-03-18T15:10:01.898Z,8.68
2018-03-18T15:12:30.150Z,7.50
2018-03-18T15:14:58.536Z,7.57
2018-03-18T15:17:27.081Z,8.00
2018-03-18T15:19:56.106Z,7.18
2018-03-18T15:22:24.416Z,7.43
2018-03-18T15:24:52.653Z,7.28
2018-03-18T15:27:20.937Z,8.55
2018-03-18T15:29:49.179Z,7.53
2018-03-18T15:32:18.240Z,7.05
2018-03-18T15:34:46.514Z,8.35
2018-03-18T15:37:14.798Z,8.55
2018-03-18T15:39:43.059Z,6.75
2018-03-18T15:42:11.330Z,7.28
2018-03-18T15:44:39.585Z,8.95
2018-03-18T15:47:07.961Z,7.35
2018-03-18T15:49:36.319Z,8.15
2018-03-18T15:52:04.707Z,8.75
2018-03-18T15:54:33.040Z,8.32
2018-03-18T15:57:01.339Z,7.90
2018-03-18T15:59:30.000Z,7.85
2018-03-18T16:01:59.130Z,7.78
2018-03-18T16:04:28.484Z,8.07
2018-03-18T16:06:57.129Z,7.50
2018-03-18T16:09:26.276Z,7.22
2018-03-18T16:11:54.730Z,7.80
2018-03-18T16:14:23.351Z,8.50
2018-03-18T16:16:51.830Z,8.75
2018-03-18T16:19:20.267Z,8.35
2018-03-18T16:21:48.811Z,8.77
2018-03-18T16:24:17.839Z,7.30
2018-03-18T16:26:46.187Z,5.80
2018-03-18T16:29:26.197Z,8.57
2018-03-18T16:31:54.442Z,9.38
2018-03-18T16:34:23.672Z,7.05
2018-03-18T16:36:52.124Z,6.57
2018-03-18T16:39:20.932Z,6.87
2018-03-18T16:41:49.703Z,7.20
2018-03-18T16:44:18.790Z,6.95
2018-03-18T16:46:47.392Z,7.20
2018-03-18T16:49:15.733Z,6.65
2018-03-18T16:51:44.382Z,8.15
2018-03-18T16:54:13.050Z,6.30
2018-03-18T16:56:42.082Z,7.53
2018-03-18T16:59:11.235Z,7.35
2018-03-18T17:01:39.532Z,7.20
2018-03-18T17:04:07.781Z,6.53
2018-03-18T17:06:36.081Z,6.53
2018-03-18T17:09:04.334Z,7.15
2018-03-18T17:11:32.614Z,7.07
2018-03-18T17:14:00.895Z,7.40
2018-03-18T17:16:29.710Z,7.43
2018-03-18T17:18:58.042Z,7.28
2018-03-18T17:21:27.187Z,6.85
2018-03-18T17:23:55.458Z,7.40
2018-03-18T17:26:24.467Z,6.55
2018-03-18T17:28:52.744Z,7.20
2018-03-18T17:31:21.049Z,7.32
2018-03-18T17:33:49.274Z,7.07
2018-03-18T17:36:17.551Z,6.07
2018-03-18T17:38:45.809Z,6.90
2018-03-18T17:41:14.850Z,10.82
2018-03-18T17:43:43.139Z,11.32
2018-03-18T17:46:23.866Z,10.70
2018-03-18T17:49:04.715Z,23.48
2018-03-18T17:54:46.623Z,13.70
2018-03-18T17:57:15.201Z,18.23
2018-03-18T17:59:43.472Z,9.27
2018-03-18T18:02:11.765Z,7.28
2018-03-18T18:04:40.046Z,7.55
2018-03-18T18:07:08.312Z,7.05
2018-03-18T18:09:36.562Z,6.43
2018-03-18T18:12:05.610Z,7.28
2018-03-18T18:14:34.016Z,6.03
2018-03-18T18:17:04.639Z,6.95
2018-03-18T18:19:33.857Z,5.32
2018-03-18T18:22:02.125Z,6.15
2018-03-18T18:24:30.710Z,6.75
2018-03-18T18:26:59.030Z,6.70
2018-03-18T18:29:28.222Z,6.30
2018-03-18T18:31:56.563Z,6.32
2018-03-18T18:34:24.860Z,5.93
2018-03-18T18:36:53.145Z,6.40
2018-03-18T18:39:21.424Z,5.72
2018-03-18T18:41:49.703Z,5.70
2018-03-18T18:44:17.951Z,6.60
2018-03-18T18:46:46.248Z,7.68
2018-03-18T18:49:14.514Z,5.55
2018-03-18T18:51:42.821Z,6.30
2018-03-18T18:54:11.104Z,6.75
2018-03-18T18:56:39.358Z,6.78
2018-03-18T18:59:07.627Z,7.45
2018-03-18T19:01:35.874Z,7.30
2018-03-18T19:04:04.158Z,7.25
2018-03-18T19:06:32.404Z,7.00
2018-03-18T19:09:00.697Z,6.40
2018-03-18T19:11:28.970Z,7.95
2018-03-18T19:13:57.251Z,6.78
2018-03-18T19:16:25.557Z,6.03
2018-03-18T19:18:53.818Z,6.50
2018-03-18T19:21:22.084Z,6.10
2018-03-18T19:23:50.368Z,6.75
2018-03-18T19:26:18.627Z,7.15
2018-03-18T19:28:46.900Z,6.15
2018-03-18T19:31:15.152Z,7.12
2018-03-18T19:33:43.515Z,7.15
2018-03-18T19:36:11.785Z,5.97
2018-03-18T19:38:40.051Z,6.85
2018-03-18T19:41:08.357Z,6.53
2018-03-18T19:43:36.719Z,5.55
2018-03-18T19:46:04.989Z,6.68
2018-03-18T19:48:33.266Z,6.40
2018-03-18T19:51:01.539Z,5.65
2018-03-18T19:53:29.837Z,6.90
2018-03-18T19:55:58.114Z,6.20
2018-03-18T19:58:26.686Z,6.53
2018-03-18T20:00:55.002Z,6.10
2018-03-18T20:03:23.268Z,6.43
2018-03-18T20:05:51.549Z,8.05
2018-03-18T20:08:19.827Z,6.47
2018-03-18T20:10:48.151Z,6.47
2018-03-18T20:13:16.430Z,6.12
2018-03-18T20:15:44.771Z,6.62
2018-03-18T20:18:13.050Z,6.45
2018-03-18T20:20:41.319Z,7.10
2018-03-18T20:23:09.574Z,6.35
2018-03-18T20:25:38.595Z,6.20
2018-03-18T20:28:06.893Z,6.05
2018-03-18T20:30:35.163Z,5.97
2018-03-18T20:33:03.471Z,7.20
2018-03-18T20:35:31.750Z,6.87
2018-03-18T20:38:00.042Z,6.03
2018-03-18T20:40:28.340Z,6.00
2018-03-18T20:42:56.717Z,6.95
2018-03-18T20:45:24.999Z,5.97
2018-03-18T20:47:55.207Z,7.15
2018-03-18T20:50:24.732Z,5.95
2018-03-18T20:52:53.006Z,7.50
2018-03-18T20:55:21.259Z,5.47
2018-03-18T20:57:49.546Z,6.25
2018-03-18T21:00:17.785Z,5.45
2018-03-18T21:02:46.090Z,6.00
2018-03-18T21:05:14.335Z,5.95
2018-03-18T21:07:43.428Z,5.85
2018-03-18T21:10:11.790Z,5.60
2018-03-18T21:12:40.831Z,5.93
2018-03-18T21:15:09.111Z,5.80
2018-03-18T21:17:37.388Z,7.60
2018-03-18T21:20:05.664Z,6.07
2018-03-18T21:22:34.692Z,5.75
2018-03-18T21:25:02.954Z,6.22
2018-03-18T21:27:31.474Z,6.87
2018-03-18T21:29:59.820Z,7.25
2018-03-18T21:32:28.164Z,6.80
2018-03-18T21:34:56.412Z,5.43
2018-03-18T21:37:24.668Z,5.55
2018-03-18T21:39:52.932Z,7.20
2018-03-18T21:42:21.202Z,6.62
2018-03-18T21:44:50.236Z,7.30
2018-03-18T21:47:18.501Z,7.12
2018-03-18T21:49:46.769Z,5.93
2018-03-18T21:52:15.815Z,5.40
2018-03-18T21:54:44.090Z,6.78
2018-03-18T21:57:12.348Z,6.25
2018-03-18T21:59:40.650Z,6.65
2018-03-18T22:02:08.914Z,7.62
2018-03-18T22:04:37.206Z,7.00
2018-03-18T22:07:05.450Z,7.22
2018-03-18T22:09:34.502Z,6.68
2018-03-18T22:12:02.794Z,7.10
2018-03-18T22:14:31.062Z,6.78
2018-03-18T22:16:59.311Z,6.60
2018-03-18T22:19:27.570Z,6.65
2018-03-18T22:21:56.590Z,6.70
2018-03-18T22:24:24.882Z,6.18
2018-03-18T22:26:53.141Z,6.70
2018-03-18T22:29:21.414Z,7.65
2018-03-18T22:31:51.195Z,5.90
2018-03-18T22:34:20.417Z,6.72
2018-03-18T22:36:49.098Z,7.18
2018-03-18T22:39:17.811Z,6.55
2018-03-18T22:41:46.340Z,6.97
2018-03-18T22:44:14.688Z,6.28
2018-03-18T22:46:43.019Z,6.28
2018-03-18T22:49:11.274Z,6.00
2018-03-18T22:51:39.570Z,6.68
2018-03-18T22:54:07.854Z,7.03
2018-03-18T22:56:36.109Z,6.53
2018-03-18T22:59:04.362Z,7.03
2018-03-18T23:01:32.631Z,7.03
2018-03-18T23:04:00.874Z,6.78
2018-03-18T23:06:29.150Z,7.68
2018-03-18T23:08:57.414Z,7.47
2018-03-18T23:11:25.687Z,7.00
2018-03-18T23:13:53.943Z,6.68
2018-03-18T23:16:22.999Z,6.95
2018-03-18T23:18:51.241Z,6.93
2018-03-18T23:21:19.529Z,7.43
2018-03-18T23:23:47.826Z,6.80
2018-03-18T23:26:16.965Z,6.68
2018-03-18T23:28:45.219Z,6.45
2018-03-18T23:31:13.573Z,7.15
2018-03-18T23:33:41.838Z,6.85
2018-03-18T23:36:10.978Z,7.85
2018-03-18T23:38:39.224Z,7.00
2018-03-18T23:41:07.727Z,6.35
2018-03-18T23:43:35.983Z,6.68
2018-03-18T23:46:05.032Z,6.37
2018-03-18T23:48:33.288Z,8.20
2018-03-18T23:51:01.553Z,6.78
2018-03-18T23:53:30.574Z,6.78
2018-03-18T23:55:58.871Z,6.32
2018-03-18T23:58:27.133Z,6.20
